sensor_id;sensor_type;location;lat;lon;timestamp;P1;durP1;ratioP1;P2;durP2;ratioP2
25868;SDS011;13688;53.154;18.136;2024-03-17T00:04:50;16.57;;;2.40;;
25868;SDS011;13688;53.154;18.136;2024-03-17T00:10:13;21.15;;;2.95;;
25868;SDS011;13688;53.154;18.136;2024-03-17T00:15:36;12.00;;;2.25;;
25868;SDS011;13688;53.154;18.136;2024-03-17T00:20:58;15.80;;;2.77;;
25868;SDS011;13688;53.154;18.136;2024-03-17T00:26:21;10.32;;;2.10;;
25868;SDS011;13688;53.154;18.136;2024-03-17T00:31:43;10.35;;;1.80;;
25868;SDS011;13688;53.154;18.136;2024-03-17T00:37:05;13.13;;;2.60;;
25868;SDS011;13688;53.154;18.136;2024-03-17T00:42:28;22.60;;;2.60;;
25868;SDS011;13688;53.154;18.136;2024-03-17T00:47:51;19.05;;;2.33;;
25868;SDS011;13688;53.154;18.136;2024-03-17T00:53:14;15.53;;;2.87;;
25868;SDS011;13688;53.154;18.136;2024-03-17T00:58:36;10.10;;;2.60;;
25868;SDS011;13688;53.154;18.136;2024-03-17T01:03:59;13.72;;;2.33;;
25868;SDS011;13688;53.154;18.136;2024-03-17T01:09:22;13.33;;;2.23;;
25868;SDS011;13688;53.154;18.136;2024-03-17T01:14:44;15.60;;;2.40;;
25868;SDS011;13688;53.154;18.136;2024-03-17T01:20:07;14.07;;;2.67;;
25868;SDS011;13688;53.154;18.136;2024-03-17T01:25:30;15.65;;;1.98;;
25868;SDS011;13688;53.154;18.136;2024-03-17T01:30:52;12.75;;;2.33;;
25868;SDS011;13688;53.154;18.136;2024-03-17T01:36:17;13.57;;;1.90;;
25868;SDS011;13688;53.154;18.136;2024-03-17T01:41:40;13.90;;;2.10;;
25868;SDS011;13688;53.154;18.136;2024-03-17T01:47:03;14.98;;;2.60;;
25868;SDS011;13688;53.154;18.136;2024-03-17T01:52:25;14.80;;;3.00;;
25868;SDS011;13688;53.154;18.136;2024-03-17T01:57:50;20.82;;;2.98;;
25868;SDS011;13688;53.154;18.136;2024-03-17T02:03:16;15.40;;;3.63;;
25868;SDS011;13688;53.154;18.136;2024-03-17T02:08:50;10.72;;;2.80;;
25868;SDS011;13688;53.154;18.136;2024-03-17T02:14:11;10.93;;;2.45;;
25868;SDS011;13688;53.154;18.136;2024-03-17T02:19:34;11.38;;;3.00;;
25868;SDS011;13688;53.154;18.136;2024-03-17T02:24:57;12.07;;;3.00;;
25868;SDS011;13688;53.154;18.136;2024-03-17T02:30:19;10.65;;;2.42;;
25868;SDS011;13688;53.154;18.136;2024-03-17T02:35:42;11.88;;;2.12;;
25868;SDS011;13688;53.154;18.136;2024-03-17T02:41:04;11.55;;;2.47;;
25868;SDS011;13688;53.154;18.136;2024-03-17T02:46:27;12.73;;;2.75;;
25868;SDS011;13688;53.154;18.136;2024-03-17T02:51:51;15.83;;;2.87;;
25868;SDS011;13688;53.154;18.136;2024-03-17T02:57:14;17.05;;;2.77;;
25868;SDS011;13688;53.154;18.136;2024-03-17T03:02:36;12.55;;;2.40;;
25868;SDS011;13688;53.154;18.136;2024-03-17T03:07:59;11.48;;;2.60;;
25868;SDS011;13688;53.154;18.136;2024-03-17T03:13:22;15.65;;;2.70;;
25868;SDS011;13688;53.154;18.136;2024-03-17T03:18:45;10.93;;;2.63;;
25868;SDS011;13688;53.154;18.136;2024-03-17T03:24:08;17.55;;;2.87;;
25868;SDS011;13688;53.154;18.136;2024-03-17T03:29:31;9.50;;;2.05;;
25868;SDS011;13688;53.154;18.136;2024-03-17T03:34:54;11.33;;;2.67;;
25868;SDS011;13688;53.154;18.136;2024-03-17T03:40:16;13.13;;;2.45;;
25868;SDS011;13688;53.154;18.136;2024-03-17T03:45:39;15.53;;;2.70;;
25868;SDS011;13688;53.154;18.136;2024-03-17T03:51:04;12.18;;;2.50;;
25868;SDS011;13688;53.154;18.136;2024-03-17T03:56:27;13.03;;;2.83;;
25868;SDS011;13688;53.154;18.136;2024-03-17T04:01:50;14.47;;;2.42;;
25868;SDS011;13688;53.154;18.136;2024-03-17T04:07:13;11.40;;;2.22;;
25868;SDS011;13688;53.154;18.136;2024-03-17T04:12:36;14.00;;;2.80;;
25868;SDS011;13688;53.154;18.136;2024-03-17T04:17:58;9.95;;;2.10;;
25868;SDS011;13688;53.154;18.136;2024-03-17T04:23:21;10.50;;;1.90;;
25868;SDS011;13688;53.154;18.136;2024-03-17T04:28:44;12.55;;;2.17;;
25868;SDS011;13688;53.154;18.136;2024-03-17T04:34:06;8.08;;;2.00;;
25868;SDS011;13688;53.154;18.136;2024-03-17T04:39:29;10.08;;;2.00;;
25868;SDS011;13688;53.154;18.136;2024-03-17T04:44:52;8.18;;;1.87;;
25868;SDS011;13688;53.154;18.136;2024-03-17T04:50:15;10.70;;;2.20;;
25868;SDS011;13688;53.154;18.136;2024-03-17T04:55:38;10.95;;;2.00;;
25868;SDS011;13688;53.154;18.136;2024-03-17T05:01:10;9.48;;;2.25;;
25868;SDS011;13688;53.154;18.136;2024-03-17T05:06:35;6.25;;;1.67;;
25868;SDS011;13688;53.154;18.136;2024-03-17T05:12:00;7.22;;;1.12;;
25868;SDS011;13688;53.154;18.136;2024-03-17T05:17:22;4.25;;;1.50;;
25868;SDS011;13688;53.154;18.136;2024-03-17T05:22:45;9.00;;;1.75;;
25868;SDS011;13688;53.154;18.136;2024-03-17T05:28:07;6.15;;;1.75;;
25868;SDS011;13688;53.154;18.136;2024-03-17T05:33:30;4.60;;;1.20;;
25868;SDS011;13688;53.154;18.136;2024-03-17T05:38:55;4.62;;;1.10;;
25868;SDS011;13688;53.154;18.136;2024-03-17T05:44:19;3.87;;;1.12;;
25868;SDS011;13688;53.154;18.136;2024-03-17T05:49:45;5.78;;;0.68;;
25868;SDS011;13688;53.154;18.136;2024-03-17T05:55:07;5.40;;;0.70;;
25868;SDS011;13688;53.154;18.136;2024-03-17T06:00:30;5.92;;;1.12;;
25868;SDS011;13688;53.154;18.136;2024-03-17T06:05:53;2.75;;;0.95;;
25868;SDS011;13688;53.154;18.136;2024-03-17T06:11:16;2.45;;;0.70;;
25868;SDS011;13688;53.154;18.136;2024-03-17T06:16:38;1.03;;;0.60;;
25868;SDS011;13688;53.154;18.136;2024-03-17T06:22:02;1.90;;;0.98;;
25868;SDS011;13688;53.154;18.136;2024-03-17T06:27:24;2.65;;;0.90;;
25868;SDS011;13688;53.154;18.136;2024-03-17T06:32:47;2.75;;;1.00;;
25868;SDS011;13688;53.154;18.136;2024-03-17T06:38:10;3.42;;;0.80;;
25868;SDS011;13688;53.154;18.136;2024-03-17T06:43:34;1.75;;;0.72;;
25868;SDS011;13688;53.154;18.136;2024-03-17T06:48:57;0.90;;;0.50;;
25868;SDS011;13688;53.154;18.136;2024-03-17T06:54:20;2.45;;;0.70;;
25868;SDS011;13688;53.154;18.136;2024-03-17T06:59:43;2.00;;;0.85;;
25868;SDS011;13688;53.154;18.136;2024-03-17T07:05:07;1.85;;;0.80;;
25868;SDS011;13688;53.154;18.136;2024-03-17T07:10:30;3.20;;;0.90;;
25868;SDS011;13688;53.154;18.136;2024-03-17T07:15:52;3.17;;;1.20;;
25868;SDS011;13688;53.154;18.136;2024-03-17T07:21:16;3.52;;;1.00;;
25868;SDS011;13688;53.154;18.136;2024-03-17T07:26:38;2.12;;;1.02;;
25868;SDS011;13688;53.154;18.136;2024-03-17T07:32:00;1.55;;;0.93;;
25868;SDS011;13688;53.154;18.136;2024-03-17T07:37:23;2.45;;;0.65;;
25868;SDS011;13688;53.154;18.136;2024-03-17T07:42:46;2.10;;;0.95;;
25868;SDS011;13688;53.154;18.136;2024-03-17T07:48:08;3.00;;;1.05;;
25868;SDS011;13688;53.154;18.136;2024-03-17T07:53:31;1.57;;;0.80;;
25868;SDS011;13688;53.154;18.136;2024-03-17T07:58:57;3.67;;;0.90;;
25868;SDS011;13688;53.154;18.136;2024-03-17T08:04:21;2.67;;;1.00;;
25868;SDS011;13688;53.154;18.136;2024-03-17T08:09:43;3.92;;;1.10;;
25868;SDS011;13688;53.154;18.136;2024-03-17T08:15:06;1.75;;;0.88;;
25868;SDS011;13688;53.154;18.136;2024-03-17T08:20:28;1.15;;;0.33;;
25868;SDS011;13688;53.154;18.136;2024-03-17T08:25:54;2.00;;;0.50;;
25868;SDS011;13688;53.154;18.136;2024-03-17T08:31:18;2.10;;;0.40;;
25868;SDS011;13688;53.154;18.136;2024-03-17T08:36:41;1.12;;;0.60;;
25868;SDS011;13688;53.154;18.136;2024-03-17T08:42:04;0.82;;;0.45;;
25868;SDS011;13688;53.154;18.136;2024-03-17T08:47:27;0.98;;;0.60;;
25868;SDS011;13688;53.154;18.136;2024-03-17T08:52:49;1.27;;;0.50;;
25868;SDS011;13688;53.154;18.136;2024-03-17T08:58:12;1.17;;;0.70;;
25868;SDS011;13688;53.154;18.136;2024-03-17T09:03:35;1.75;;;0.60;;
25868;SDS011;13688;53.154;18.136;2024-03-17T09:08:59;1.27;;;0.45;;
25868;SDS011;13688;53.154;18.136;2024-03-17T09:14:23;1.20;;;0.50;;
25868;SDS011;13688;53.154;18.136;2024-03-17T09:19:45;1.27;;;0.47;;
25868;SDS011;13688;53.154;18.136;2024-03-17T09:25:08;2.35;;;0.50;;
25868;SDS011;13688;53.154;18.136;2024-03-17T09:30:31;0.78;;;0.42;;
25868;SDS011;13688;53.154;18.136;2024-03-17T09:36:05;2.17;;;0.70;;
25868;SDS011;13688;53.154;18.136;2024-03-17T09:41:29;1.75;;;0.42;;
25868;SDS011;13688;53.154;18.136;2024-03-17T09:46:52;0.45;;;0.30;;
25868;SDS011;13688;53.154;18.136;2024-03-17T09:52:23;0.65;;;0.30;;
25868;SDS011;13688;53.154;18.136;2024-03-17T09:57:47;0.68;;;0.40;;
25868;SDS011;13688;53.154;18.136;2024-03-17T10:03:12;1.60;;;0.30;;
25868;SDS011;13688;53.154;18.136;2024-03-17T10:09:18;1.27;;;0.50;;
25868;SDS011;13688;53.154;18.136;2024-03-17T10:14:40;0.73;;;0.50;;
25868;SDS011;13688;53.154;18.136;2024-03-17T10:20:11;0.60;;;0.40;;
25868;SDS011;13688;53.154;18.136;2024-03-17T10:25:38;1.03;;;0.43;;
25868;SDS011;13688;53.154;18.136;2024-03-17T10:30:59;0.62;;;0.40;;
25868;SDS011;13688;53.154;18.136;2024-03-17T10:36:24;0.83;;;0.50;;
25868;SDS011;13688;53.154;18.136;2024-03-17T10:41:46;1.53;;;0.53;;
25868;SDS011;13688;53.154;18.136;2024-03-17T10:47:17;0.40;;;0.40;;
25868;SDS011;13688;53.154;18.136;2024-03-17T10:52:39;1.30;;;0.60;;
25868;SDS011;13688;53.154;18.136;2024-03-17T10:58:04;1.30;;;0.60;;
25868;SDS011;13688;53.154;18.136;2024-03-17T11:03:47;0.28;;;0.20;;
25868;SDS011;13688;53.154;18.136;2024-03-17T11:09:13;0.95;;;0.50;;
25868;SDS011;13688;53.154;18.136;2024-03-17T11:14:35;1.43;;;0.40;;
25868;SDS011;13688;53.154;18.136;2024-03-17T11:20:15;0.85;;;0.40;;
25868;SDS011;13688;53.154;18.136;2024-03-17T11:25:38;1.10;;;0.62;;
25868;SDS011;13688;53.154;18.136;2024-03-17T11:31:03;1.25;;;0.57;;
25868;SDS011;13688;53.154;18.136;2024-03-17T11:36:46;0.70;;;0.50;;
25868;SDS011;13688;53.154;18.136;2024-03-17T11:42:21;1.63;;;0.40;;
25868;SDS011;13688;53.154;18.136;2024-03-17T11:47:45;1.77;;;0.70;;
25868;SDS011;13688;53.154;18.136;2024-03-17T11:53:10;0.53;;;0.40;;
25868;SDS011;13688;53.154;18.136;2024-03-17T11:58:34;0.55;;;0.40;;
25868;SDS011;13688;53.154;18.136;2024-03-17T12:03:56;1.98;;;0.33;;
25868;SDS011;13688;53.154;18.136;2024-03-17T12:09:34;0.33;;;0.20;;
25868;SDS011;13688;53.154;18.136;2024-03-17T12:15:02;1.50;;;0.50;;
25868;SDS011;13688;53.154;18.136;2024-03-17T12:20:36;0.97;;;0.63;;
25868;SDS011;13688;53.154;18.136;2024-03-17T12:26:02;1.33;;;0.73;;
25868;SDS011;13688;53.154;18.136;2024-03-17T12:31:26;3.80;;;0.70;;
25868;SDS011;13688;53.154;18.136;2024-03-17T12:36:49;1.47;;;0.70;;
25868;SDS011;13688;53.154;18.136;2024-03-17T12:42:14;2.85;;;0.88;;
25868;SDS011;13688;53.154;18.136;2024-03-17T12:47:42;1.90;;;0.73;;
25868;SDS011;13688;53.154;18.136;2024-03-17T12:53:07;1.77;;;0.70;;
25868;SDS011;13688;53.154;18.136;2024-03-17T12:58:32;1.53;;;0.60;;
25868;SDS011;13688;53.154;18.136;2024-03-17T13:09:29;1.35;;;0.50;;
25868;SDS011;13688;53.154;18.136;2024-03-17T13:14:51;1.60;;;1.05;;
25868;SDS011;13688;53.154;18.136;2024-03-17T13:20:15;0.98;;;0.40;;
25868;SDS011;13688;53.154;18.136;2024-03-17T13:25:38;1.47;;;0.53;;
25868;SDS011;13688;53.154;18.136;2024-03-17T13:31:02;1.35;;;0.60;;
25868;SDS011;13688;53.154;18.136;2024-03-17T13:36:26;2.70;;;0.47;;
25868;SDS011;13688;53.154;18.136;2024-03-17T13:41:48;0.60;;;0.50;;
25868;SDS011;13688;53.154;18.136;2024-03-17T13:47:11;1.10;;;0.57;;
25868;SDS011;13688;53.154;18.136;2024-03-17T13:52:34;0.98;;;0.50;;
25868;SDS011;13688;53.154;18.136;2024-03-17T13:57:57;1.42;;;0.60;;
25868;SDS011;13688;53.154;18.136;2024-03-17T14:03:21;0.90;;;0.50;;
25868;SDS011;13688;53.154;18.136;2024-03-17T14:08:44;1.27;;;0.60;;
25868;SDS011;13688;53.154;18.136;2024-03-17T14:14:10;1.77;;;0.80;;
25868;SDS011;13688;53.154;18.136;2024-03-17T14:19:34;1.07;;;0.82;;
25868;SDS011;13688;53.154;18.136;2024-03-17T14:24:57;2.33;;;0.68;;
25868;SDS011;13688;53.154;18.136;2024-03-17T14:30:29;1.20;;;0.40;;
25868;SDS011;13688;53.154;18.136;2024-03-17T14:35:58;0.90;;;0.40;;
25868;SDS011;13688;53.154;18.136;2024-03-17T14:46:38;1.45;;;0.65;;
25868;SDS011;13688;53.154;18.136;2024-03-17T14:52:01;1.05;;;0.53;;
25868;SDS011;13688;53.154;18.136;2024-03-17T14:57:25;1.25;;;0.60;;
25868;SDS011;13688;53.154;18.136;2024-03-17T15:02:50;2.87;;;1.07;;
25868;SDS011;13688;53.154;18.136;2024-03-17T15:08:17;2.05;;;0.80;;
25868;SDS011;13688;53.154;18.136;2024-03-17T15:13:46;2.27;;;0.70;;
25868;SDS011;13688;53.154;18.136;2024-03-17T15:19:10;1.67;;;0.50;;
25868;SDS011;13688;53.154;18.136;2024-03-17T15:24:34;1.40;;;0.60;;
25868;SDS011;13688;53.154;18.136;2024-03-17T15:29:57;1.92;;;0.90;;
25868;SDS011;13688;53.154;18.136;2024-03-17T15:35:40;4.93;;;1.63;;
25868;SDS011;13688;53.154;18.136;2024-03-17T15:41:07;0.90;;;0.70;;
25868;SDS011;13688;53.154;18.136;2024-03-17T15:46:27;1.53;;;1.00;;
25868;SDS011;13688;53.154;18.136;2024-03-17T15:51:50;3.62;;;1.20;;
25868;SDS011;13688;53.154;18.136;2024-03-17T15:57:13;2.55;;;1.27;;
25868;SDS011;13688;53.154;18.136;2024-03-17T16:02:36;2.15;;;1.05;;
25868;SDS011;13688;53.154;18.136;2024-03-17T16:08:01;2.40;;;1.10;;
25868;SDS011;13688;53.154;18.136;2024-03-17T16:13:39;1.93;;;0.50;;
25868;SDS011;13688;53.154;18.136;2024-03-17T16:19:07;1.23;;;0.80;;
25868;SDS011;13688;53.154;18.136;2024-03-17T16:24:32;1.50;;;0.70;;
25868;SDS011;13688;53.154;18.136;2024-03-17T16:29:58;2.35;;;0.85;;
25868;SDS011;13688;53.154;18.136;2024-03-17T16:35:22;1.83;;;0.77;;
25868;SDS011;13688;53.154;18.136;2024-03-17T16:40:47;3.57;;;0.80;;
25868;SDS011;13688;53.154;18.136;2024-03-17T16:46:16;2.77;;;0.72;;
25868;SDS011;13688;53.154;18.136;2024-03-17T16:52:00;1.07;;;0.57;;
25868;SDS011;13688;53.154;18.136;2024-03-17T16:57:22;1.10;;;0.60;;
25868;SDS011;13688;53.154;18.136;2024-03-17T17:02:46;1.43;;;0.60;;
25868;SDS011;13688;53.154;18.136;2024-03-17T17:08:08;1.55;;;0.62;;
25868;SDS011;13688;53.154;18.136;2024-03-17T17:13:32;2.37;;;0.80;;
25868;SDS011;13688;53.154;18.136;2024-03-17T17:19:00;1.82;;;0.80;;
25868;SDS011;13688;53.154;18.136;2024-03-17T17:24:24;1.12;;;0.60;;
25868;SDS011;13688;53.154;18.136;2024-03-17T17:29:47;3.62;;;0.70;;
25868;SDS011;13688;53.154;18.136;2024-03-17T17:35:10;1.25;;;0.53;;
25868;SDS011;13688;53.154;18.136;2024-03-17T17:40:38;4.15;;;0.60;;
25868;SDS011;13688;53.154;18.136;2024-03-17T17:46:02;0.88;;;0.60;;
25868;SDS011;13688;53.154;18.136;2024-03-17T17:51:29;1.80;;;0.75;;
25868;SDS011;13688;53.154;18.136;2024-03-17T17:56:51;1.62;;;0.70;;
25868;SDS011;13688;53.154;18.136;2024-03-17T18:02:13;3.17;;;0.98;;
25868;SDS011;13688;53.154;18.136;2024-03-17T18:07:36;4.75;;;1.37;;
25868;SDS011;13688;53.154;18.136;2024-03-17T18:12:58;2.25;;;0.90;;
25868;SDS011;13688;53.154;18.136;2024-03-17T18:18:20;3.62;;;0.93;;
25868;SDS011;13688;53.154;18.136;2024-03-17T18:23:44;2.30;;;0.90;;
25868;SDS011;13688;53.154;18.136;2024-03-17T18:29:06;1.52;;;0.80;;
25868;SDS011;13688;53.154;18.136;2024-03-17T18:34:28;7.97;;;3.83;;
25868;SDS011;13688;53.154;18.136;2024-03-17T18:39:51;3.25;;;1.15;;
25868;SDS011;13688;53.154;18.136;2024-03-17T18:45:14;4.08;;;0.82;;
25868;SDS011;13688;53.154;18.136;2024-03-17T18:50:38;4.08;;;0.90;;
25868;SDS011;13688;53.154;18.136;2024-03-17T18:56:07;1.80;;;0.70;;
25868;SDS011;13688;53.154;18.136;2024-03-17T19:01:30;2.92;;;0.70;;
25868;SDS011;13688;53.154;18.136;2024-03-17T19:06:54;1.87;;;0.93;;
25868;SDS011;13688;53.154;18.136;2024-03-17T19:12:17;2.60;;;1.00;;
25868;SDS011;13688;53.154;18.136;2024-03-17T19:17:39;1.98;;;0.70;;
25868;SDS011;13688;53.154;18.136;2024-03-17T19:23:04;3.60;;;1.10;;
25868;SDS011;13688;53.154;18.136;2024-03-17T19:28:27;2.20;;;0.95;;
25868;SDS011;13688;53.154;18.136;2024-03-17T19:33:51;4.50;;;1.25;;
25868;SDS011;13688;53.154;18.136;2024-03-17T19:39:14;4.50;;;1.32;;
25868;SDS011;13688;53.154;18.136;2024-03-17T19:44:37;3.25;;;1.30;;
25868;SDS011;13688;53.154;18.136;2024-03-17T19:50:02;4.45;;;1.60;;
25868;SDS011;13688;53.154;18.136;2024-03-17T19:55:25;3.27;;;1.65;;
25868;SDS011;13688;53.154;18.136;2024-03-17T20:00:47;4.72;;;1.47;;
25868;SDS011;13688;53.154;18.136;2024-03-17T20:06:17;8.60;;;3.55;;
25868;SDS011;13688;53.154;18.136;2024-03-17T20:11:41;5.67;;;1.50;;
25868;SDS011;13688;53.154;18.136;2024-03-17T20:17:04;3.20;;;1.35;;
25868;SDS011;13688;53.154;18.136;2024-03-17T20:22:27;8.40;;;1.25;;
25868;SDS011;13688;53.154;18.136;2024-03-17T20:27:50;2.45;;;0.90;;
25868;SDS011;13688;53.154;18.136;2024-03-17T20:33:12;3.37;;;0.82;;
25868;SDS011;13688;53.154;18.136;2024-03-17T20:38:35;2.17;;;0.80;;
25868;SDS011;13688;53.154;18.136;2024-03-17T20:43:59;3.60;;;0.95;;
25868;SDS011;13688;53.154;18.136;2024-03-17T20:49:22;3.95;;;1.30;;
25868;SDS011;13688;53.154;18.136;2024-03-17T20:54:45;4.70;;;1.25;;
25868;SDS011;13688;53.154;18.136;2024-03-17T21:00:07;3.50;;;1.25;;
25868;SDS011;13688;53.154;18.136;2024-03-17T21:05:32;4.28;;;1.55;;
25868;SDS011;13688;53.154;18.136;2024-03-17T21:10:57;5.35;;;1.65;;
25868;SDS011;13688;53.154;18.136;2024-03-17T21:16:21;9.05;;;2.05;;
25868;SDS011;13688;53.154;18.136;2024-03-17T21:21:44;5.55;;;2.17;;
25868;SDS011;13688;53.154;18.136;2024-03-17T21:27:11;4.03;;;1.65;;
25868;SDS011;13688;53.154;18.136;2024-03-17T21:32:33;6.25;;;1.65;;
25868;SDS011;13688;53.154;18.136;2024-03-17T21:37:56;3.95;;;1.85;;
25868;SDS011;13688;53.154;18.136;2024-03-17T21:43:20;3.30;;;1.37;;
25868;SDS011;13688;53.154;18.136;2024-03-17T21:48:44;3.02;;;1.20;;
25868;SDS011;13688;53.154;18.136;2024-03-17T21:54:18;6.67;;;1.50;;
25868;SDS011;13688;53.154;18.136;2024-03-17T21:59:42;3.93;;;1.20;;
25868;SDS011;13688;53.154;18.136;2024-03-17T22:05:06;3.60;;;1.40;;
25868;SDS011;13688;53.154;18.136;2024-03-17T22:10:29;3.83;;;1.00;;
25868;SDS011;13688;53.154;18.136;2024-03-17T22:15:54;2.70;;;1.02;;
25868;SDS011;13688;53.154;18.136;2024-03-17T22:21:17;2.43;;;1.00;;
25868;SDS011;13688;53.154;18.136;2024-03-17T22:26:40;3.72;;;0.90;;
25868;SDS011;13688;53.154;18.136;2024-03-17T22:32:02;2.67;;;1.20;;
25868;SDS011;13688;53.154;18.136;2024-03-17T22:37:25;3.63;;;0.80;;
25868;SDS011;13688;53.154;18.136;2024-03-17T22:42:49;4.03;;;1.00;;
25868;SDS011;13688;53.154;18.136;2024-03-17T22:48:13;4.67;;;0.90;;
25868;SDS011;13688;53.154;18.136;2024-03-17T22:53:51;2.90;;;0.93;;
25868;SDS011;13688;53.154;18.136;2024-03-17T22:59:14;2.93;;;1.20;;
25868;SDS011;13688;53.154;18.136;2024-03-17T23:04:37;2.37;;;0.73;;
25868;SDS011;13688;53.154;18.136;2024-03-17T23:09:59;6.10;;;0.80;;
25868;SDS011;13688;53.154;18.136;2024-03-17T23:15:22;2.50;;;0.73;;
25868;SDS011;13688;53.154;18.136;2024-03-17T23:20:44;4.28;;;0.98;;
25868;SDS011;13688;53.154;18.136;2024-03-17T23:26:07;4.10;;;0.80;;
25868;SDS011;13688;53.154;18.136;2024-03-17T23:31:30;4.77;;;0.90;;
25868;SDS011;13688;53.154;18.136;2024-03-17T23:36:52;3.07;;;0.80;;
25868;SDS011;13688;53.154;18.136;2024-03-17T23:42:14;2.37;;;0.73;;
25868;SDS011;13688;53.154;18.136;2024-03-17T23:47:38;5.15;;;0.88;;
25868;SDS011;13688;53.154;18.136;2024-03-17T23:53:01;2.05;;;0.50;;
25868;SDS011;13688;53.154;18.136;2024-03-17T23:58:24;3.12;;;0.90;;
